Terminal Aerodrome Forecast
Issued by NWS

Home | Current Version | Previous Version | Text Only | Print | Product List | Glossary On
Versions: 1 2 3 4 5 6 7 8 9 10 11 12 13 14 15 16 17
000
FTUS44 KLZK 212338
TAFHRO
TAF
KHRO 212338Z 2200/2224 18005KT P6SM SCT250
     FM221300 22008KT P6SM SCT050 BKN250
     FM221600 24008G16KT P6SM VCTS SCT050CB BKN100 OVC250 PROB30
      2217/2222 5SM -TSRA OVC050CB=

USA.gov is the U.S. government's official web portal to all federal, state and local government web resources and services.